createdAt,value
2022-09-03T00:00:37.766Z,16.43
2022-09-03T00:03:18.683Z,16.45
2022-09-03T00:05:51.205Z,16.43
2022-09-03T00:08:34.710Z,16.38
2022-09-03T00:11:22.651Z,16.31
2022-09-03T00:13:58.122Z,16.26
2022-09-03T00:16:30.946Z,16.22
2022-09-03T00:19:01.652Z,16.24
2022-09-03T00:22:00.945Z,16.27
2022-09-03T00:24:30.915Z,16.67
2022-09-03T00:27:03.329Z,16.72
2022-09-03T00:29:37.064Z,16.80
2022-09-03T00:32:11.151Z,16.83
2022-09-03T00:34:48.198Z,16.79
2022-09-03T00:37:15.671Z,16.85
2022-09-03T00:39:42.911Z,17.01
2022-09-03T00:42:31.625Z,17.03
2022-09-03T00:45:34.991Z,17.19
2022-09-03T00:48:13.903Z,17.18
2022-09-03T00:51:05.350Z,17.11
2022-09-03T00:54:18.249Z,17.05
2022-09-03T00:57:22.433Z,17.14
2022-09-03T01:00:11.127Z,17.17
2022-09-03T01:02:51.632Z,17.19
2022-09-03T01:05:22.493Z,17.26
2022-09-03T01:08:14.920Z,17.28
2022-09-03T01:11:04.072Z,17.27
2022-09-03T01:13:39.585Z,17.30
2022-09-03T01:16:40.754Z,17.30
2022-09-03T01:19:13.501Z,17.34
2022-09-03T01:22:20.348Z,17.37
2022-09-03T01:25:24.042Z,17.33
2022-09-03T01:28:08.197Z,17.30
2022-09-03T01:30:40.162Z,17.29
2022-09-03T01:33:34.067Z,17.35
2022-09-03T01:36:21.111Z,17.35
2022-09-03T01:38:53.433Z,17.37
2022-09-03T01:41:38.952Z,17.33
2022-09-03T01:44:23.936Z,17.30
2022-09-03T01:47:04.828Z,17.28
2022-09-03T01:49:49.148Z,17.27
2022-09-03T01:52:22.450Z,17.28
2022-09-03T01:55:19.663Z,17.20
2022-09-03T01:57:55.078Z,17.17
2022-09-03T02:00:22.609Z,17.14
2022-09-03T02:02:53.613Z,17.13
2022-09-03T02:05:23.647Z,17.22
2022-09-03T02:07:56.798Z,17.27
2022-09-03T02:10:29.930Z,17.21
2022-09-03T02:13:12.611Z,17.22
2022-09-03T02:15:43.813Z,17.19
2022-09-03T02:18:16.395Z,17.17
2022-09-03T02:20:45.769Z,17.16
2022-09-03T02:23:12.444Z,17.19
2022-09-03T02:25:42.700Z,17.15
2022-09-03T02:28:17.204Z,17.04
2022-09-03T02:30:44.552Z,16.95
2022-09-03T02:33:11.504Z,16.92
2022-09-03T02:35:39.856Z,16.99
2022-09-03T02:38:18.075Z,16.99
2022-09-03T02:40:45.551Z,17.00
2022-09-03T02:43:18.806Z,16.97
2022-09-03T02:45:51.140Z,16.97
2022-09-03T02:48:23.104Z,16.94
2022-09-03T02:50:49.967Z,16.92
2022-09-03T02:53:16.815Z,16.91
2022-09-03T02:55:44.361Z,16.87
2022-09-03T02:58:10.734Z,16.89
2022-09-03T03:00:37.947Z,16.85
2022-09-03T03:03:06.241Z,16.83
2022-09-03T03:05:57.995Z,16.79
2022-09-03T03:08:27.751Z,16.76
2022-09-03T03:10:57.172Z,16.72
2022-09-03T03:13:24.851Z,16.71
2022-09-03T03:15:51.667Z,16.69
2022-09-03T03:18:18.356Z,16.60
2022-09-03T03:20:45.005Z,16.62
2022-09-03T03:23:11.502Z,16.52
2022-09-03T03:25:39.732Z,16.53
2022-09-03T03:28:07.401Z,16.46
2022-09-03T03:30:37.188Z,16.41
2022-09-03T03:33:03.746Z,16.38
2022-09-03T03:35:30.522Z,16.27
2022-09-03T03:38:00.318Z,16.08
2022-09-03T03:40:27.222Z,16.01
2022-09-03T03:42:54.805Z,15.91
2022-09-03T03:45:21.215Z,15.74
2022-09-03T03:47:47.766Z,15.64
2022-09-03T03:50:14.287Z,15.74
2022-09-03T03:52:40.637Z,15.82
2022-09-03T03:55:07.455Z,15.82
2022-09-03T03:57:34.066Z,15.89
2022-09-03T04:00:00.617Z,15.97
2022-09-03T04:02:27.274Z,15.99
2022-09-03T04:04:53.695Z,15.99
2022-09-03T04:07:20.074Z,15.91
2022-09-03T04:09:47.113Z,15.79
2022-09-03T04:12:13.497Z,15.70
2022-09-03T04:14:39.980Z,15.68
2022-09-03T04:17:06.689Z,15.67
2022-09-03T04:19:33.068Z,15.68
2022-09-03T04:21:59.765Z,15.74
2022-09-03T04:24:26.289Z,15.75
2022-09-03T04:26:52.729Z,15.72
2022-09-03T04:29:19.182Z,15.78
2022-09-03T04:31:45.577Z,15.81
2022-09-03T04:34:12.247Z,15.86
2022-09-03T04:36:38.669Z,15.86
2022-09-03T04:39:07.543Z,15.84
2022-09-03T04:41:34.037Z,15.83
2022-09-03T04:44:00.778Z,15.82
2022-09-03T04:46:29.939Z,15.89
2022-09-03T04:48:56.569Z,15.92
2022-09-03T04:51:27.107Z,15.93
2022-09-03T04:53:57.174Z,15.93
2022-09-03T04:56:28.266Z,15.92
2022-09-03T04:58:57.022Z,15.83
2022-09-03T05:01:27.519Z,15.76
2022-09-03T05:03:54.620Z,15.83
2022-09-03T05:06:22.646Z,15.77
2022-09-03T05:08:50.302Z,15.70
2022-09-03T05:11:17.679Z,15.69
2022-09-03T05:13:47.196Z,15.73
2022-09-03T05:16:13.747Z,15.66
2022-09-03T05:18:40.169Z,15.63
2022-09-03T05:21:09.059Z,15.67
2022-09-03T05:23:41.930Z,15.75
2022-09-03T05:26:17.953Z,15.84
2022-09-03T05:28:45.511Z,15.90
2022-09-03T05:31:14.459Z,15.97
2022-09-03T05:33:47.045Z,16.00
2022-09-03T05:36:16.028Z,15.91
2022-09-03T05:38:43.774Z,15.84
2022-09-03T05:41:12.677Z,15.68
2022-09-03T05:43:40.130Z,15.70
2022-09-03T05:46:10.756Z,15.81
2022-09-03T05:48:38.792Z,15.92
2022-09-03T05:51:11.195Z,15.91
2022-09-03T05:53:40.040Z,16.11
2022-09-03T05:56:09.657Z,16.15
2022-09-03T05:58:38.717Z,16.19
2022-09-03T06:01:15.862Z,16.27
2022-09-03T06:03:44.304Z,16.28
2022-09-03T06:06:12.006Z,16.28
2022-09-03T06:08:38.516Z,16.30
2022-09-03T06:11:05.843Z,16.49
2022-09-03T06:13:33.588Z,16.51
2022-09-03T06:16:02.167Z,16.51
2022-09-03T06:18:32.300Z,16.53
2022-09-03T06:21:01.756Z,16.68
2022-09-03T06:23:29.567Z,16.72
2022-09-03T06:26:13.466Z,16.73
2022-09-03T06:28:43.410Z,16.87
2022-09-03T06:31:12.666Z,16.92
2022-09-03T06:33:40.702Z,17.00
2022-09-03T06:36:09.935Z,16.96
2022-09-03T06:38:38.089Z,17.01
2022-09-03T06:41:28.819Z,17.00
2022-09-03T06:44:12.223Z,17.17
2022-09-03T06:46:41.015Z,17.09
2022-09-03T06:49:07.505Z,17.36
2022-09-03T06:51:34.280Z,17.42
2022-09-03T06:54:04.311Z,17.58
2022-09-03T06:56:38.887Z,17.70
2022-09-03T06:59:11.930Z,17.71
2022-09-03T07:01:39.167Z,17.81
2022-09-03T07:04:05.842Z,17.94
2022-09-03T07:06:38.078Z,17.92
2022-09-03T07:09:05.892Z,17.98
2022-09-03T07:11:32.703Z,18.10
2022-09-03T07:14:00.577Z,18.22
2022-09-03T07:16:30.065Z,18.34
2022-09-03T07:18:57.087Z,18.25
2022-09-03T07:21:26.803Z,18.23
2022-09-03T07:23:54.671Z,18.08
2022-09-03T07:26:31.086Z,18.25
2022-09-03T07:28:58.833Z,18.09
2022-09-03T07:31:33.738Z,18.11
2022-09-03T07:34:06.085Z,18.09
2022-09-03T14:04:44.175Z,19.26
2022-09-03T14:07:17.702Z,18.96
2022-09-03T14:10:06.269Z,19.39
2022-09-03T14:12:49.195Z,19.93
2022-09-03T14:15:15.565Z,20.11
2022-09-03T14:17:52.740Z,20.28
2022-09-03T14:20:27.747Z,20.89
2022-09-03T14:23:19.017Z,20.34
2022-09-03T14:25:55.763Z,19.94
2022-09-03T14:28:35.926Z,20.04
2022-09-03T14:31:47.754Z,20.32
2022-09-03T14:34:42.600Z,20.25
2022-09-03T14:50:57.227Z,20.61
2022-09-03T14:54:01.764Z,20.44
2022-09-03T14:56:50.132Z,20.41
2022-09-03T14:59:43.189Z,20.59
2022-09-03T15:02:21.814Z,20.29
2022-09-03T15:04:56.029Z,20.33
2022-09-03T15:07:42.585Z,20.13
2022-09-03T15:10:51.149Z,20.24
2022-09-03T15:13:26.101Z,20.01
2022-09-03T15:16:01.745Z,20.21
2022-09-03T15:18:43.557Z,20.46
2022-09-03T15:21:34.928Z,20.59
2022-09-03T15:24:36.481Z,20.70
2022-09-03T15:27:18.852Z,20.53
2022-09-03T15:30:03.679Z,20.69
2022-09-03T15:32:55.245Z,20.74
2022-09-03T15:35:43.515Z,20.72
2022-09-03T15:38:19.887Z,21.07
2022-09-03T15:40:46.391Z,20.74
2022-09-03T15:43:19.771Z,20.70
2022-09-03T15:45:49.365Z,20.66
2022-09-03T15:48:53.399Z,20.11
2022-09-03T15:51:26.691Z,19.99
2022-09-03T15:54:15.287Z,19.98
2022-09-03T15:57:05.577Z,20.05
2022-09-03T15:59:42.334Z,20.25
2022-09-03T16:02:19.901Z,20.51
2022-09-03T16:08:23.363Z,19.97
2022-09-03T16:11:16.689Z,20.00
2022-09-03T16:14:07.898Z,19.98
2022-09-03T16:16:56.352Z,20.00
2022-09-03T16:19:40.426Z,19.86
2022-09-03T16:22:14.608Z,19.83
2022-09-03T16:24:49.769Z,19.91
2022-09-03T16:27:36.580Z,19.92
2022-09-03T16:30:12.208Z,19.99
2022-09-03T16:32:47.404Z,19.95
2022-09-03T16:35:27.178Z,19.97
2022-09-03T16:38:27.547Z,19.91
2022-09-03T16:41:27.832Z,19.88
2022-09-03T16:44:20.156Z,19.84
2022-09-03T16:47:07.981Z,19.78
2022-09-03T16:49:54.849Z,19.69
2022-09-03T16:52:40.011Z,19.72
2022-09-03T16:55:35.043Z,19.70
2022-09-03T16:58:21.970Z,19.73
2022-09-03T17:01:08.870Z,19.75
2022-09-03T17:03:47.699Z,19.72
2022-09-03T17:06:49.445Z,19.73
2022-09-03T17:09:30.870Z,19.74
2022-09-03T17:12:14.360Z,19.68
2022-09-03T17:14:58.418Z,19.66
2022-09-03T17:17:58.785Z,19.60
2022-09-03T17:20:34.222Z,19.51
2022-09-03T17:23:06.915Z,19.32
2022-09-03T17:25:37.885Z,19.33
2022-09-03T17:28:15.559Z,19.41
2022-09-03T17:30:48.477Z,19.42
2022-09-03T17:33:27.036Z,19.19
2022-09-03T17:36:05.713Z,19.09
2022-09-03T17:38:47.136Z,18.90
2022-09-03T17:41:19.280Z,18.82
2022-09-03T17:44:18.499Z,18.78
2022-09-03T17:46:54.316Z,18.76
2022-09-03T17:49:26.398Z,18.59
2022-09-03T17:52:05.459Z,18.45
2022-09-03T17:54:46.422Z,18.35
2022-09-03T17:57:24.353Z,18.29
2022-09-03T18:00:01.781Z,18.29
2022-09-03T18:02:30.910Z,18.23
2022-09-03T18:05:04.918Z,18.15
2022-09-03T18:07:47.362Z,18.07
2022-09-03T18:10:27.691Z,18.00
2022-09-03T18:13:34.912Z,17.97
2022-09-03T18:16:14.158Z,17.97
2022-09-03T18:18:47.425Z,17.98
2022-09-03T18:21:27.778Z,17.89
2022-09-03T18:24:30.473Z,17.71
2022-09-03T18:27:04.162Z,17.62
2022-09-03T18:29:44.358Z,17.60
2022-09-03T18:32:10.994Z,17.61
2022-09-03T18:34:38.519Z,17.59
2022-09-03T18:37:05.523Z,17.49
2022-09-03T18:39:32.209Z,17.38
2022-09-03T18:42:37.733Z,17.32
2022-09-03T18:45:23.334Z,17.29
2022-09-03T18:48:14.076Z,17.25
2022-09-03T18:51:02.875Z,17.30
2022-09-03T18:53:55.990Z,17.25
2022-09-03T18:56:34.603Z,17.15
2022-09-03T18:59:18.589Z,17.07
2022-09-03T19:01:45.371Z,17.05
2022-09-03T19:04:30.948Z,17.00
2022-09-03T19:07:12.603Z,16.99
2022-09-03T19:10:02.642Z,16.93
2022-09-03T19:12:38.096Z,16.92
2022-09-03T19:15:16.774Z,16.84
2022-09-03T19:18:09.098Z,16.74
2022-09-03T19:20:39.334Z,16.69
2022-09-03T19:23:06.028Z,16.65
2022-09-03T19:25:32.721Z,16.58
2022-09-03T19:28:04.842Z,16.53
2022-09-03T19:30:52.736Z,16.51
2022-09-03T19:33:39.314Z,16.51
2022-09-03T19:36:11.088Z,16.52
2022-09-03T19:38:55.730Z,16.44
2022-09-03T19:41:32.464Z,16.46
2022-09-03T19:44:19.197Z,16.42
2022-09-03T19:46:51.280Z,16.33
2022-09-03T19:49:51.539Z,16.31
2022-09-03T19:52:24.072Z,16.29
2022-09-03T19:54:54.814Z,16.29
2022-09-03T19:57:22.289Z,16.26
2022-09-03T19:59:50.598Z,16.22
2022-09-03T20:02:17.081Z,16.21
2022-09-03T20:04:51.883Z,16.21
2022-09-03T20:07:20.888Z,16.17
2022-09-03T20:09:48.107Z,16.11
2022-09-03T20:12:18.158Z,16.05
2022-09-03T20:14:44.963Z,16.01
2022-09-03T20:17:45.788Z,16.01
2022-09-03T20:20:15.773Z,15.93
2022-09-03T20:22:53.442Z,15.89
2022-09-03T20:25:37.357Z,15.84
2022-09-03T20:28:30.870Z,15.79
2022-09-03T20:31:43.865Z,15.79
2022-09-03T20:34:38.854Z,15.82
2022-09-03T20:37:18.784Z,15.82
2022-09-03T20:39:58.854Z,15.82
2022-09-03T20:43:10.745Z,15.90
2022-09-03T20:46:07.945Z,15.89
2022-09-03T20:48:40.829Z,15.90
2022-09-03T20:51:14.812Z,15.92
2022-09-03T20:54:04.696Z,15.95
2022-09-03T20:57:00.235Z,15.99
2022-09-03T20:59:57.038Z,16.05
2022-09-03T21:02:48.070Z,16.06
2022-09-03T21:05:28.269Z,16.05
2022-09-03T21:08:08.141Z,16.03
2022-09-03T21:10:47.296Z,16.05
2022-09-03T21:13:28.161Z,16.05
2022-09-03T21:16:05.713Z,16.04
2022-09-03T21:18:50.116Z,16.00
2022-09-03T21:21:30.885Z,15.95
2022-09-03T21:24:21.953Z,15.82
2022-09-03T21:26:53.434Z,15.78
2022-09-03T21:29:25.576Z,15.73
2022-09-03T21:32:02.456Z,15.68
2022-09-03T21:34:50.796Z,15.67
2022-09-03T21:37:18.625Z,15.66
2022-09-03T21:39:54.857Z,15.69
2022-09-03T21:42:31.077Z,15.67
2022-09-03T21:45:07.208Z,15.68
2022-09-03T21:47:40.650Z,15.69
2022-09-03T21:50:19.127Z,15.72
2022-09-03T21:52:54.670Z,15.77
2022-09-03T21:55:33.238Z,15.81
2022-09-03T21:58:02.319Z,15.88
2022-09-03T22:00:29.433Z,15.96
2022-09-03T22:02:55.956Z,15.99
2022-09-03T22:05:23.421Z,15.95
2022-09-03T22:08:04.766Z,16.00
2022-09-03T22:10:49.849Z,15.96
2022-09-03T22:13:35.383Z,16.00
2022-09-03T22:16:17.728Z,16.05
2022-09-03T22:18:44.334Z,16.10
2022-09-03T22:21:26.148Z,16.13
2022-09-03T22:24:01.771Z,16.09
2022-09-03T22:26:58.923Z,16.14
2022-09-03T22:29:42.954Z,16.15
2022-09-03T22:32:25.236Z,16.12
2022-09-03T22:35:36.648Z,16.13
2022-09-03T22:38:21.492Z,16.09
2022-09-03T22:41:29.959Z,16.10
2022-09-03T22:44:36.999Z,16.07
2022-09-03T22:47:18.658Z,16.06
2022-09-03T22:50:18.161Z,16.05
2022-09-03T22:52:51.303Z,16.04
2022-09-03T22:55:21.660Z,16.05
2022-09-03T22:57:55.685Z,15.96
2022-09-03T23:00:22.368Z,15.96
2022-09-03T23:02:59.609Z,15.91
2022-09-03T23:05:43.881Z,15.87
2022-09-03T23:08:33.576Z,15.80
2022-09-03T23:10:59.918Z,15.76
2022-09-03T23:13:29.205Z,15.72
2022-09-03T23:16:21.488Z,15.65
2022-09-03T23:18:48.605Z,15.61
2022-09-03T23:21:31.923Z,15.60
2022-09-03T23:24:05.677Z,15.59
2022-09-03T23:26:41.587Z,15.63
2022-09-03T23:29:16.958Z,15.61
2022-09-03T23:31:43.415Z,15.63
2022-09-03T23:34:12.018Z,15.60
2022-09-03T23:37:32.586Z,15.51
2022-09-03T23:40:27.665Z,15.50
2022-09-03T23:43:22.750Z,15.45
2022-09-03T23:46:01.995Z,15.39
2022-09-03T23:48:47.585Z,15.36
2022-09-03T23:51:28.403Z,15.32
2022-09-03T23:54:16.954Z,15.31
2022-09-03T23:57:04.017Z,15.31
